sensor_id;sensor_type;location;lat;lon;timestamp;P1;durP1;ratioP1;P2;durP2;ratioP2
30380;SDS011;17169;50.966;11.038;2022-11-20T00:00:27;33.22;;;16.13;;
30380;SDS011;17169;50.966;11.038;2022-11-20T00:03:29;26.73;;;13.93;;
30380;SDS011;17169;50.966;11.038;2022-11-20T00:06:32;29.80;;;14.98;;
30380;SDS011;17169;50.966;11.038;2022-11-20T00:09:35;32.72;;;14.90;;
30380;SDS011;17169;50.966;11.038;2022-11-20T00:12:38;29.73;;;14.02;;
30380;SDS011;17169;50.966;11.038;2022-11-20T00:15:40;26.60;;;14.15;;
30380;SDS011;17169;50.966;11.038;2022-11-20T00:18:42;27.25;;;14.70;;
30380;SDS011;17169;50.966;11.038;2022-11-20T00:21:45;26.65;;;13.88;;
30380;SDS011;17169;50.966;11.038;2022-11-20T00:24:49;28.40;;;14.18;;
30380;SDS011;17169;50.966;11.038;2022-11-20T00:27:51;26.98;;;14.13;;
30380;SDS011;17169;50.966;11.038;2022-11-20T00:30:59;28.63;;;14.93;;
30380;SDS011;17169;50.966;11.038;2022-11-20T00:34:02;26.13;;;14.07;;
30380;SDS011;17169;50.966;11.038;2022-11-20T00:37:05;27.80;;;14.50;;
30380;SDS011;17169;50.966;11.038;2022-11-20T00:40:09;27.95;;;13.75;;
30380;SDS011;17169;50.966;11.038;2022-11-20T00:46:15;27.52;;;14.38;;
30380;SDS011;17169;50.966;11.038;2022-11-20T00:49:18;25.17;;;14.00;;
30380;SDS011;17169;50.966;11.038;2022-11-20T00:52:20;29.40;;;14.02;;
30380;SDS011;17169;50.966;11.038;2022-11-20T00:55:24;25.35;;;12.80;;
30380;SDS011;17169;50.966;11.038;2022-11-20T00:58:28;27.67;;;13.48;;
30380;SDS011;17169;50.966;11.038;2022-11-20T01:01:32;29.77;;;14.25;;
30380;SDS011;17169;50.966;11.038;2022-11-20T01:04:34;25.15;;;12.98;;
30380;SDS011;17169;50.966;11.038;2022-11-20T01:07:36;30.88;;;14.20;;
30380;SDS011;17169;50.966;11.038;2022-11-20T01:10:40;25.25;;;12.27;;
30380;SDS011;17169;50.966;11.038;2022-11-20T01:13:43;27.95;;;13.93;;
30380;SDS011;17169;50.966;11.038;2022-11-20T01:16:47;32.00;;;14.10;;
30380;SDS011;17169;50.966;11.038;2022-11-20T01:19:51;29.52;;;14.15;;
30380;SDS011;17169;50.966;11.038;2022-11-20T01:22:53;27.88;;;13.50;;
30380;SDS011;17169;50.966;11.038;2022-11-20T01:25:58;26.55;;;12.85;;
30380;SDS011;17169;50.966;11.038;2022-11-20T01:29:02;26.52;;;12.63;;
30380;SDS011;17169;50.966;11.038;2022-11-20T01:32:05;21.60;;;11.70;;
30380;SDS011;17169;50.966;11.038;2022-11-20T01:35:08;21.83;;;12.15;;
30380;SDS011;17169;50.966;11.038;2022-11-20T01:38:10;22.88;;;12.07;;
30380;SDS011;17169;50.966;11.038;2022-11-20T01:41:14;28.92;;;13.98;;
30380;SDS011;17169;50.966;11.038;2022-11-20T01:44:45;24.95;;;12.15;;
30380;SDS011;17169;50.966;11.038;2022-11-20T01:47:53;27.75;;;13.65;;
30380;SDS011;17169;50.966;11.038;2022-11-20T01:50:56;27.05;;;13.02;;
30380;SDS011;17169;50.966;11.038;2022-11-20T01:54:01;22.90;;;12.10;;
30380;SDS011;17169;50.966;11.038;2022-11-20T01:57:08;25.88;;;12.32;;
30380;SDS011;17169;50.966;11.038;2022-11-20T02:00:13;28.80;;;12.65;;
30380;SDS011;17169;50.966;11.038;2022-11-20T02:03:18;21.90;;;11.32;;
30380;SDS011;17169;50.966;11.038;2022-11-20T02:06:23;22.20;;;11.57;;
30380;SDS011;17169;50.966;11.038;2022-11-20T02:09:27;26.58;;;12.48;;
30380;SDS011;17169;50.966;11.038;2022-11-20T02:12:31;26.88;;;12.82;;
30380;SDS011;17169;50.966;11.038;2022-11-20T02:15:51;22.42;;;11.52;;
30380;SDS011;17169;50.966;11.038;2022-11-20T02:18:55;25.75;;;11.45;;
30380;SDS011;17169;50.966;11.038;2022-11-20T02:22:00;26.42;;;13.15;;
30380;SDS011;17169;50.966;11.038;2022-11-20T02:25:08;22.05;;;11.35;;
30380;SDS011;17169;50.966;11.038;2022-11-20T02:28:11;26.08;;;12.90;;
30380;SDS011;17169;50.966;11.038;2022-11-20T02:31:14;23.05;;;10.50;;
30380;SDS011;17169;50.966;11.038;2022-11-20T02:34:17;27.20;;;13.00;;
30380;SDS011;17169;50.966;11.038;2022-11-20T02:37:19;24.00;;;12.80;;
30380;SDS011;17169;50.966;11.038;2022-11-20T02:40:24;26.52;;;13.32;;
30380;SDS011;17169;50.966;11.038;2022-11-20T02:43:26;23.07;;;11.80;;
30380;SDS011;17169;50.966;11.038;2022-11-20T02:46:29;23.33;;;12.15;;
30380;SDS011;17169;50.966;11.038;2022-11-20T02:49:32;23.98;;;11.65;;
30380;SDS011;17169;50.966;11.038;2022-11-20T02:52:34;23.40;;;11.77;;
30380;SDS011;17169;50.966;11.038;2022-11-20T02:55:38;27.13;;;13.05;;
30380;SDS011;17169;50.966;11.038;2022-11-20T02:58:40;26.90;;;12.73;;
30380;SDS011;17169;50.966;11.038;2022-11-20T03:01:43;22.38;;;12.25;;
30380;SDS011;17169;50.966;11.038;2022-11-20T03:04:45;23.30;;;12.15;;
30380;SDS011;17169;50.966;11.038;2022-11-20T03:07:47;24.58;;;12.68;;
30380;SDS011;17169;50.966;11.038;2022-11-20T03:10:51;27.73;;;12.98;;
30380;SDS011;17169;50.966;11.038;2022-11-20T03:13:54;23.23;;;11.83;;
30380;SDS011;17169;50.966;11.038;2022-11-20T03:16:56;26.90;;;11.82;;
30380;SDS011;17169;50.966;11.038;2022-11-20T03:19:59;23.38;;;12.27;;
30380;SDS011;17169;50.966;11.038;2022-11-20T03:23:01;23.38;;;11.13;;
30380;SDS011;17169;50.966;11.038;2022-11-20T03:26:09;23.95;;;11.13;;
30380;SDS011;17169;50.966;11.038;2022-11-20T03:29:13;22.17;;;10.80;;
30380;SDS011;17169;50.966;11.038;2022-11-20T03:32:15;27.85;;;11.80;;
30380;SDS011;17169;50.966;11.038;2022-11-20T03:35:18;22.73;;;11.60;;
30380;SDS011;17169;50.966;11.038;2022-11-20T03:38:20;23.80;;;12.05;;
30380;SDS011;17169;50.966;11.038;2022-11-20T03:41:24;24.48;;;11.15;;
30380;SDS011;17169;50.966;11.038;2022-11-20T03:44:28;21.55;;;10.90;;
30380;SDS011;17169;50.966;11.038;2022-11-20T03:47:31;24.17;;;11.07;;
30380;SDS011;17169;50.966;11.038;2022-11-20T03:50:33;21.05;;;10.77;;
30380;SDS011;17169;50.966;11.038;2022-11-20T03:53:35;23.08;;;10.30;;
30380;SDS011;17169;50.966;11.038;2022-11-20T03:56:39;19.10;;;10.43;;
30380;SDS011;17169;50.966;11.038;2022-11-20T03:59:41;22.50;;;10.75;;
30380;SDS011;17169;50.966;11.038;2022-11-20T04:02:44;24.35;;;11.25;;
30380;SDS011;17169;50.966;11.038;2022-11-20T04:05:46;21.95;;;10.77;;
30380;SDS011;17169;50.966;11.038;2022-11-20T04:08:49;24.15;;;11.02;;
30380;SDS011;17169;50.966;11.038;2022-11-20T04:11:53;22.00;;;10.10;;
30380;SDS011;17169;50.966;11.038;2022-11-20T04:14:55;24.38;;;11.07;;
30380;SDS011;17169;50.966;11.038;2022-11-20T04:17:58;23.48;;;11.18;;
30380;SDS011;17169;50.966;11.038;2022-11-20T04:21:00;20.88;;;10.75;;
30380;SDS011;17169;50.966;11.038;2022-11-20T04:24:03;19.45;;;10.57;;
30380;SDS011;17169;50.966;11.038;2022-11-20T04:27:07;19.95;;;9.73;;
30380;SDS011;17169;50.966;11.038;2022-11-20T04:30:10;23.60;;;11.02;;
30380;SDS011;17169;50.966;11.038;2022-11-20T04:33:13;21.58;;;10.68;;
30380;SDS011;17169;50.966;11.038;2022-11-20T04:36:16;25.00;;;11.63;;
30380;SDS011;17169;50.966;11.038;2022-11-20T04:39:20;22.67;;;11.20;;
30380;SDS011;17169;50.966;11.038;2022-11-20T04:42:23;26.42;;;12.13;;
30380;SDS011;17169;50.966;11.038;2022-11-20T04:45:32;22.85;;;10.57;;
30380;SDS011;17169;50.966;11.038;2022-11-20T04:48:34;24.60;;;11.48;;
30380;SDS011;17169;50.966;11.038;2022-11-20T04:51:36;21.38;;;10.73;;
30380;SDS011;17169;50.966;11.038;2022-11-20T04:54:39;19.42;;;10.13;;
30380;SDS011;17169;50.966;11.038;2022-11-20T04:57:42;23.80;;;11.82;;
30380;SDS011;17169;50.966;11.038;2022-11-20T05:00:45;24.80;;;11.43;;
30380;SDS011;17169;50.966;11.038;2022-11-20T05:03:47;22.70;;;10.70;;
30380;SDS011;17169;50.966;11.038;2022-11-20T05:06:50;23.17;;;10.32;;
30380;SDS011;17169;50.966;11.038;2022-11-20T05:09:52;20.77;;;10.98;;
30380;SDS011;17169;50.966;11.038;2022-11-20T05:12:56;19.10;;;9.38;;
30380;SDS011;17169;50.966;11.038;2022-11-20T05:16:02;19.97;;;10.10;;
30380;SDS011;17169;50.966;11.038;2022-11-20T05:19:05;20.13;;;10.23;;
30380;SDS011;17169;50.966;11.038;2022-11-20T05:22:07;23.38;;;10.43;;
30380;SDS011;17169;50.966;11.038;2022-11-20T05:25:10;20.40;;;10.13;;
30380;SDS011;17169;50.966;11.038;2022-11-20T05:28:14;21.23;;;9.80;;
30380;SDS011;17169;50.966;11.038;2022-11-20T05:31:17;16.92;;;8.75;;
30380;SDS011;17169;50.966;11.038;2022-11-20T05:34:21;21.10;;;10.03;;
30380;SDS011;17169;50.966;11.038;2022-11-20T05:37:23;15.65;;;8.50;;
30380;SDS011;17169;50.966;11.038;2022-11-20T05:40:25;20.88;;;9.23;;
30380;SDS011;17169;50.966;11.038;2022-11-20T05:43:30;16.75;;;8.93;;
30380;SDS011;17169;50.966;11.038;2022-11-20T05:46:33;17.67;;;9.40;;
30380;SDS011;17169;50.966;11.038;2022-11-20T05:49:36;19.02;;;8.18;;
30380;SDS011;17169;50.966;11.038;2022-11-20T05:52:38;20.52;;;9.82;;
30380;SDS011;17169;50.966;11.038;2022-11-20T05:55:40;16.27;;;8.98;;
30380;SDS011;17169;50.966;11.038;2022-11-20T05:58:44;14.98;;;8.52;;
30380;SDS011;17169;50.966;11.038;2022-11-20T06:01:47;16.48;;;8.25;;
30380;SDS011;17169;50.966;11.038;2022-11-20T06:04:50;16.23;;;7.40;;
30380;SDS011;17169;50.966;11.038;2022-11-20T06:07:52;19.88;;;9.15;;
30380;SDS011;17169;50.966;11.038;2022-11-20T06:10:54;16.40;;;8.55;;
30380;SDS011;17169;50.966;11.038;2022-11-20T06:13:58;16.17;;;8.40;;
30380;SDS011;17169;50.966;11.038;2022-11-20T06:17:00;17.00;;;8.82;;
30380;SDS011;17169;50.966;11.038;2022-11-20T06:20:03;17.75;;;8.95;;
30380;SDS011;17169;50.966;11.038;2022-11-20T06:23:06;17.48;;;9.10;;
30380;SDS011;17169;50.966;11.038;2022-11-20T06:26:09;15.43;;;8.82;;
30380;SDS011;17169;50.966;11.038;2022-11-20T06:29:14;17.55;;;8.10;;
30380;SDS011;17169;50.966;11.038;2022-11-20T06:32:17;22.92;;;10.73;;
30380;SDS011;17169;50.966;11.038;2022-11-20T06:35:19;18.63;;;8.07;;
30380;SDS011;17169;50.966;11.038;2022-11-20T06:38:22;19.58;;;9.05;;
30380;SDS011;17169;50.966;11.038;2022-11-20T06:41:24;14.70;;;7.53;;
30380;SDS011;17169;50.966;11.038;2022-11-20T06:44:28;17.42;;;8.15;;
30380;SDS011;17169;50.966;11.038;2022-11-20T06:47:30;12.88;;;7.65;;
30380;SDS011;17169;50.966;11.038;2022-11-20T06:50:33;19.45;;;8.27;;
30380;SDS011;17169;50.966;11.038;2022-11-20T06:53:35;16.67;;;8.23;;
30380;SDS011;17169;50.966;11.038;2022-11-20T06:56:38;16.00;;;7.85;;
30380;SDS011;17169;50.966;11.038;2022-11-20T06:59:42;16.52;;;8.85;;
30380;SDS011;17169;50.966;11.038;2022-11-20T07:02:45;17.95;;;8.80;;
30380;SDS011;17169;50.966;11.038;2022-11-20T07:05:47;17.98;;;9.20;;
30380;SDS011;17169;50.966;11.038;2022-11-20T07:08:50;17.05;;;8.82;;
30380;SDS011;17169;50.966;11.038;2022-11-20T07:11:53;18.65;;;8.70;;
30380;SDS011;17169;50.966;11.038;2022-11-20T07:14:56;21.10;;;8.23;;
30380;SDS011;17169;50.966;11.038;2022-11-20T07:17:59;16.10;;;8.07;;
30380;SDS011;17169;50.966;11.038;2022-11-20T07:21:01;15.98;;;7.68;;
30380;SDS011;17169;50.966;11.038;2022-11-20T07:24:04;25.67;;;11.77;;
30380;SDS011;17169;50.966;11.038;2022-11-20T07:27:07;28.00;;;12.82;;
30380;SDS011;17169;50.966;11.038;2022-11-20T07:30:11;16.73;;;8.23;;
30380;SDS011;17169;50.966;11.038;2022-11-20T07:33:14;14.90;;;7.90;;
30380;SDS011;17169;50.966;11.038;2022-11-20T07:36:17;13.25;;;6.72;;
30380;SDS011;17169;50.966;11.038;2022-11-20T07:39:19;12.35;;;6.85;;
30380;SDS011;17169;50.966;11.038;2022-11-20T07:42:21;16.25;;;7.78;;
30380;SDS011;17169;50.966;11.038;2022-11-20T07:45:25;16.38;;;6.90;;
30380;SDS011;17169;50.966;11.038;2022-11-20T07:48:27;13.20;;;6.93;;
30380;SDS011;17169;50.966;11.038;2022-11-20T07:51:30;13.55;;;7.85;;
30380;SDS011;17169;50.966;11.038;2022-11-20T07:54:32;17.65;;;7.68;;
30380;SDS011;17169;50.966;11.038;2022-11-20T07:57:34;14.43;;;8.15;;
30380;SDS011;17169;50.966;11.038;2022-11-20T08:00:38;15.82;;;7.05;;
30380;SDS011;17169;50.966;11.038;2022-11-20T08:03:41;13.68;;;6.70;;
30380;SDS011;17169;50.966;11.038;2022-11-20T08:06:43;13.98;;;7.22;;
30380;SDS011;17169;50.966;11.038;2022-11-20T08:09:45;14.82;;;8.02;;
30380;SDS011;17169;50.966;11.038;2022-11-20T08:12:48;16.95;;;9.02;;
30380;SDS011;17169;50.966;11.038;2022-11-20T08:16:10;19.40;;;9.00;;
30380;SDS011;17169;50.966;11.038;2022-11-20T08:19:13;18.52;;;9.75;;
30380;SDS011;17169;50.966;11.038;2022-11-20T08:22:17;17.98;;;8.90;;
30380;SDS011;17169;50.966;11.038;2022-11-20T08:25:21;17.38;;;8.65;;
30380;SDS011;17169;50.966;11.038;2022-11-20T08:28:23;16.38;;;7.25;;
30380;SDS011;17169;50.966;11.038;2022-11-20T08:31:27;13.70;;;7.55;;
30380;SDS011;17169;50.966;11.038;2022-11-20T08:34:29;15.90;;;7.15;;
30380;SDS011;17169;50.966;11.038;2022-11-20T08:37:31;14.10;;;7.88;;
30380;SDS011;17169;50.966;11.038;2022-11-20T08:40:34;16.23;;;7.78;;
30380;SDS011;17169;50.966;11.038;2022-11-20T08:43:36;14.32;;;7.32;;
30380;SDS011;17169;50.966;11.038;2022-11-20T08:46:40;12.90;;;7.45;;
30380;SDS011;17169;50.966;11.038;2022-11-20T08:52:46;14.20;;;7.78;;
30380;SDS011;17169;50.966;11.038;2022-11-20T08:55:48;15.25;;;8.10;;
30380;SDS011;17169;50.966;11.038;2022-11-20T08:58:50;19.00;;;8.73;;
30380;SDS011;17169;50.966;11.038;2022-11-20T09:01:54;21.08;;;9.77;;
30380;SDS011;17169;50.966;11.038;2022-11-20T09:04:57;16.45;;;8.50;;
30380;SDS011;17169;50.966;11.038;2022-11-20T09:07:59;20.83;;;9.48;;
30380;SDS011;17169;50.966;11.038;2022-11-20T09:11:02;15.45;;;8.90;;
30380;SDS011;17169;50.966;11.038;2022-11-20T09:14:05;17.33;;;8.73;;
30380;SDS011;17169;50.966;11.038;2022-11-20T09:17:08;15.82;;;8.25;;
30380;SDS011;17169;50.966;11.038;2022-11-20T09:20:14;14.73;;;8.68;;
30380;SDS011;17169;50.966;11.038;2022-11-20T09:23:16;23.00;;;8.88;;
30380;SDS011;17169;50.966;11.038;2022-11-20T09:26:19;18.35;;;8.98;;
30380;SDS011;17169;50.966;11.038;2022-11-20T09:29:21;19.80;;;9.30;;
30380;SDS011;17169;50.966;11.038;2022-11-20T09:32:25;18.80;;;9.73;;
30380;SDS011;17169;50.966;11.038;2022-11-20T09:35:27;16.98;;;8.80;;
30380;SDS011;17169;50.966;11.038;2022-11-20T09:38:30;18.75;;;8.95;;
30380;SDS011;17169;50.966;11.038;2022-11-20T09:41:36;17.23;;;9.70;;
30380;SDS011;17169;50.966;11.038;2022-11-20T09:48:20;21.80;;;9.95;;
30380;SDS011;17169;50.966;11.038;2022-11-20T09:51:35;16.05;;;9.13;;
30380;SDS011;17169;50.966;11.038;2022-11-20T09:54:44;18.15;;;9.80;;
30380;SDS011;17169;50.966;11.038;2022-11-20T09:57:47;20.25;;;10.73;;
30380;SDS011;17169;50.966;11.038;2022-11-20T10:00:52;18.60;;;10.75;;
30380;SDS011;17169;50.966;11.038;2022-11-20T10:03:58;20.98;;;10.38;;
30380;SDS011;17169;50.966;11.038;2022-11-20T10:07:04;22.25;;;11.55;;
30380;SDS011;17169;50.966;11.038;2022-11-20T10:10:14;23.10;;;12.13;;
30380;SDS011;17169;50.966;11.038;2022-11-20T10:13:20;22.38;;;11.43;;
30380;SDS011;17169;50.966;11.038;2022-11-20T10:16:34;17.55;;;11.27;;
30380;SDS011;17169;50.966;11.038;2022-11-20T10:19:54;21.85;;;11.27;;
30380;SDS011;17169;50.966;11.038;2022-11-20T10:23:09;21.73;;;10.95;;
30380;SDS011;17169;50.966;11.038;2022-11-20T10:26:22;26.23;;;12.98;;
30380;SDS011;17169;50.966;11.038;2022-11-20T10:29:32;23.92;;;12.18;;
30380;SDS011;17169;50.966;11.038;2022-11-20T10:32:36;22.02;;;11.80;;
30380;SDS011;17169;50.966;11.038;2022-11-20T10:35:42;24.88;;;11.35;;
30380;SDS011;17169;50.966;11.038;2022-11-20T10:38:51;21.05;;;10.82;;
30380;SDS011;17169;50.966;11.038;2022-11-20T10:41:59;22.67;;;11.90;;
30380;SDS011;17169;50.966;11.038;2022-11-20T10:45:04;24.77;;;11.93;;
30380;SDS011;17169;50.966;11.038;2022-11-20T10:48:16;22.85;;;12.20;;
30380;SDS011;17169;50.966;11.038;2022-11-20T10:51:30;21.50;;;12.55;;
30380;SDS011;17169;50.966;11.038;2022-11-20T10:54:40;22.52;;;11.73;;
30380;SDS011;17169;50.966;11.038;2022-11-20T10:57:49;20.90;;;11.55;;
30380;SDS011;17169;50.966;11.038;2022-11-20T11:01:02;20.92;;;12.05;;
30380;SDS011;17169;50.966;11.038;2022-11-20T11:04:07;23.85;;;12.38;;
30380;SDS011;17169;50.966;11.038;2022-11-20T11:07:23;22.33;;;12.48;;
30380;SDS011;17169;50.966;11.038;2022-11-20T11:10:31;23.20;;;12.45;;
30380;SDS011;17169;50.966;11.038;2022-11-20T11:13:37;29.58;;;12.52;;
30380;SDS011;17169;50.966;11.038;2022-11-20T11:16:48;26.67;;;11.73;;
30380;SDS011;17169;50.966;11.038;2022-11-20T11:20:02;25.17;;;13.40;;
30380;SDS011;17169;50.966;11.038;2022-11-20T11:23:22;25.88;;;13.25;;
30380;SDS011;17169;50.966;11.038;2022-11-20T11:26:32;25.88;;;13.65;;
30380;SDS011;17169;50.966;11.038;2022-11-20T11:29:34;26.75;;;13.55;;
30380;SDS011;17169;50.966;11.038;2022-11-20T11:32:37;25.48;;;14.02;;
30380;SDS011;17169;50.966;11.038;2022-11-20T11:35:43;25.70;;;13.75;;
30380;SDS011;17169;50.966;11.038;2022-11-20T11:38:49;31.10;;;15.57;;
30380;SDS011;17169;50.966;11.038;2022-11-20T11:41:54;30.90;;;15.10;;
30380;SDS011;17169;50.966;11.038;2022-11-20T11:44:58;25.77;;;14.00;;
30380;SDS011;17169;50.966;11.038;2022-11-20T11:48:07;29.13;;;15.45;;
30380;SDS011;17169;50.966;11.038;2022-11-20T11:51:11;29.15;;;13.68;;
30380;SDS011;17169;50.966;11.038;2022-11-20T11:54:15;29.17;;;14.63;;
30380;SDS011;17169;50.966;11.038;2022-11-20T11:57:27;28.08;;;13.95;;
30380;SDS011;17169;50.966;11.038;2022-11-20T12:00:35;30.55;;;14.90;;
30380;SDS011;17169;50.966;11.038;2022-11-20T12:03:43;26.27;;;14.45;;
30380;SDS011;17169;50.966;11.038;2022-11-20T12:06:51;33.53;;;15.18;;
30380;SDS011;17169;50.966;11.038;2022-11-20T12:10:04;28.38;;;15.32;;
30380;SDS011;17169;50.966;11.038;2022-11-20T12:16:38;34.70;;;16.80;;
30380;SDS011;17169;50.966;11.038;2022-11-20T12:19:41;41.90;;;18.27;;
30380;SDS011;17169;50.966;11.038;2022-11-20T12:22:46;37.08;;;18.13;;
30380;SDS011;17169;50.966;11.038;2022-11-20T12:25:56;37.60;;;15.98;;
30380;SDS011;17169;50.966;11.038;2022-11-20T12:29:06;37.40;;;17.45;;
30380;SDS011;17169;50.966;11.038;2022-11-20T12:32:34;36.67;;;17.75;;
30380;SDS011;17169;50.966;11.038;2022-11-20T12:36:06;40.63;;;18.13;;
30380;SDS011;17169;50.966;11.038;2022-11-20T12:39:22;42.60;;;19.13;;
30380;SDS011;17169;50.966;11.038;2022-11-20T12:42:41;39.63;;;17.25;;
30380;SDS011;17169;50.966;11.038;2022-11-20T12:46:10;47.00;;;20.55;;
30380;SDS011;17169;50.966;11.038;2022-11-20T12:49:22;42.38;;;17.92;;
30380;SDS011;17169;50.966;11.038;2022-11-20T12:55:45;40.50;;;17.65;;
30380;SDS011;17169;50.966;11.038;2022-11-20T12:58:55;46.80;;;19.15;;
30380;SDS011;17169;50.966;11.038;2022-11-20T13:02:10;42.03;;;18.83;;
30380;SDS011;17169;50.966;11.038;2022-11-20T13:05:19;43.60;;;18.13;;
30380;SDS011;17169;50.966;11.038;2022-11-20T13:08:29;43.65;;;19.80;;
30380;SDS011;17169;50.966;11.038;2022-11-20T13:11:37;41.17;;;17.65;;
30380;SDS011;17169;50.966;11.038;2022-11-20T13:14:47;43.88;;;18.33;;
30380;SDS011;17169;50.966;11.038;2022-11-20T13:17:57;43.58;;;18.70;;
30380;SDS011;17169;50.966;11.038;2022-11-20T13:21:01;42.70;;;19.48;;
30380;SDS011;17169;50.966;11.038;2022-11-20T13:24:04;45.35;;;19.73;;
30380;SDS011;17169;50.966;11.038;2022-11-20T13:27:17;46.33;;;20.15;;
30380;SDS011;17169;50.966;11.038;2022-11-20T13:30:23;50.88;;;20.77;;
30380;SDS011;17169;50.966;11.038;2022-11-20T13:33:28;41.67;;;18.88;;
30380;SDS011;17169;50.966;11.038;2022-11-20T13:36:32;52.15;;;21.05;;
30380;SDS011;17169;50.966;11.038;2022-11-20T13:39:37;51.70;;;20.63;;
30380;SDS011;17169;50.966;11.038;2022-11-20T13:42:39;48.35;;;20.25;;
30380;SDS011;17169;50.966;11.038;2022-11-20T13:45:55;45.75;;;20.15;;
30380;SDS011;17169;50.966;11.038;2022-11-20T13:49:05;42.63;;;19.88;;
30380;SDS011;17169;50.966;11.038;2022-11-20T13:52:20;46.05;;;20.42;;
30380;SDS011;17169;50.966;11.038;2022-11-20T13:55:38;51.70;;;21.70;;
30380;SDS011;17169;50.966;11.038;2022-11-20T13:58:52;52.08;;;21.65;;
30380;SDS011;17169;50.966;11.038;2022-11-20T14:02:02;44.20;;;20.88;;
30380;SDS011;17169;50.966;11.038;2022-11-20T14:05:05;46.40;;;20.50;;
30380;SDS011;17169;50.966;11.038;2022-11-20T14:08:17;47.92;;;20.95;;
30380;SDS011;17169;50.966;11.038;2022-11-20T14:11:27;52.58;;;21.35;;
30380;SDS011;17169;50.966;11.038;2022-11-20T14:14:32;45.17;;;19.63;;
30380;SDS011;17169;50.966;11.038;2022-11-20T14:17:38;42.35;;;20.67;;
30380;SDS011;17169;50.966;11.038;2022-11-20T14:20:40;42.63;;;20.98;;
30380;SDS011;17169;50.966;11.038;2022-11-20T14:23:44;43.30;;;18.85;;
30380;SDS011;17169;50.966;11.038;2022-11-20T14:26:46;35.22;;;17.13;;
30380;SDS011;17169;50.966;11.038;2022-11-20T14:29:49;42.00;;;18.85;;
30380;SDS011;17169;50.966;11.038;2022-11-20T14:32:54;38.90;;;16.88;;
30380;SDS011;17169;50.966;11.038;2022-11-20T14:35:59;40.22;;;17.17;;
30380;SDS011;17169;50.966;11.038;2022-11-20T14:39:01;32.28;;;15.50;;
30380;SDS011;17169;50.966;11.038;2022-11-20T14:42:10;30.65;;;14.60;;
30380;SDS011;17169;50.966;11.038;2022-11-20T14:45:17;32.83;;;14.00;;
30380;SDS011;17169;50.966;11.038;2022-11-20T14:48:22;26.80;;;13.43;;
30380;SDS011;17169;50.966;11.038;2022-11-20T14:51:30;33.55;;;14.35;;
30380;SDS011;17169;50.966;11.038;2022-11-20T14:54:35;27.63;;;14.93;;
30380;SDS011;17169;50.966;11.038;2022-11-20T14:57:53;28.45;;;13.75;;
30380;SDS011;17169;50.966;11.038;2022-11-20T15:00:57;31.42;;;14.15;;
30380;SDS011;17169;50.966;11.038;2022-11-20T15:04:05;28.77;;;14.27;;
30380;SDS011;17169;50.966;11.038;2022-11-20T15:07:09;28.83;;;13.73;;
30380;SDS011;17169;50.966;11.038;2022-11-20T15:10:12;25.58;;;12.75;;
30380;SDS011;17169;50.966;11.038;2022-11-20T15:13:25;32.05;;;14.15;;
30380;SDS011;17169;50.966;11.038;2022-11-20T15:16:31;29.88;;;13.07;;
30380;SDS011;17169;50.966;11.038;2022-11-20T15:19:35;27.85;;;12.60;;
30380;SDS011;17169;50.966;11.038;2022-11-20T15:22:38;31.17;;;13.52;;
30380;SDS011;17169;50.966;11.038;2022-11-20T15:25:40;31.00;;;14.00;;
30380;SDS011;17169;50.966;11.038;2022-11-20T15:28:44;34.03;;;15.23;;
30380;SDS011;17169;50.966;11.038;2022-11-20T15:31:48;36.40;;;16.15;;
30380;SDS011;17169;50.966;11.038;2022-11-20T15:34:52;32.25;;;15.95;;
30380;SDS011;17169;50.966;11.038;2022-11-20T15:37:55;32.35;;;15.48;;
30380;SDS011;17169;50.966;11.038;2022-11-20T15:40:57;26.50;;;14.15;;
30380;SDS011;17169;50.966;11.038;2022-11-20T15:43:59;36.15;;;15.15;;
30380;SDS011;17169;50.966;11.038;2022-11-20T15:47:02;29.83;;;15.23;;
30380;SDS011;17169;50.966;11.038;2022-11-20T15:50:08;37.25;;;16.27;;
30380;SDS011;17169;50.966;11.038;2022-11-20T15:53:17;31.40;;;15.27;;
30380;SDS011;17169;50.966;11.038;2022-11-20T15:56:19;34.97;;;15.38;;
30380;SDS011;17169;50.966;11.038;2022-11-20T15:59:22;32.38;;;14.95;;
30380;SDS011;17169;50.966;11.038;2022-11-20T16:02:24;38.60;;;17.13;;
30380;SDS011;17169;50.966;11.038;2022-11-20T16:05:29;32.50;;;16.15;;
30380;SDS011;17169;50.966;11.038;2022-11-20T16:11:34;36.17;;;15.38;;
30380;SDS011;17169;50.966;11.038;2022-11-20T16:14:37;30.67;;;14.35;;
30380;SDS011;17169;50.966;11.038;2022-11-20T16:17:56;31.88;;;16.02;;
30380;SDS011;17169;50.966;11.038;2022-11-20T16:21:00;25.25;;;12.45;;
30380;SDS011;17169;50.966;11.038;2022-11-20T16:24:03;31.17;;;14.88;;
30380;SDS011;17169;50.966;11.038;2022-11-20T16:27:07;29.30;;;14.75;;
30380;SDS011;17169;50.966;11.038;2022-11-20T16:30:11;28.17;;;14.68;;
30380;SDS011;17169;50.966;11.038;2022-11-20T16:33:14;32.22;;;15.43;;
30380;SDS011;17169;50.966;11.038;2022-11-20T16:36:20;31.75;;;14.18;;
30380;SDS011;17169;50.966;11.038;2022-11-20T16:39:24;29.67;;;14.52;;
30380;SDS011;17169;50.966;11.038;2022-11-20T16:42:26;27.65;;;13.57;;
30380;SDS011;17169;50.966;11.038;2022-11-20T16:45:29;32.30;;;14.38;;
30380;SDS011;17169;50.966;11.038;2022-11-20T16:48:31;38.80;;;17.13;;
30380;SDS011;17169;50.966;11.038;2022-11-20T16:51:35;39.70;;;16.30;;
30380;SDS011;17169;50.966;11.038;2022-11-20T16:54:38;55.25;;;18.30;;
30380;SDS011;17169;50.966;11.038;2022-11-20T16:57:40;48.33;;;18.45;;
30380;SDS011;17169;50.966;11.038;2022-11-20T17:00:43;40.67;;;17.95;;
30380;SDS011;17169;50.966;11.038;2022-11-20T17:03:46;33.90;;;15.25;;
30380;SDS011;17169;50.966;11.038;2022-11-20T17:06:56;32.00;;;14.55;;
30380;SDS011;17169;50.966;11.038;2022-11-20T17:09:58;34.75;;;15.40;;
30380;SDS011;17169;50.966;11.038;2022-11-20T17:13:01;29.88;;;14.02;;
30380;SDS011;17169;50.966;11.038;2022-11-20T17:16:04;23.70;;;12.80;;
30380;SDS011;17169;50.966;11.038;2022-11-20T17:19:10;26.35;;;13.45;;
30380;SDS011;17169;50.966;11.038;2022-11-20T17:22:13;24.05;;;12.88;;
30380;SDS011;17169;50.966;11.038;2022-11-20T17:25:16;29.42;;;13.63;;
30380;SDS011;17169;50.966;11.038;2022-11-20T17:28:18;23.77;;;12.13;;
30380;SDS011;17169;50.966;11.038;2022-11-20T17:31:20;24.88;;;12.40;;
30380;SDS011;17169;50.966;11.038;2022-11-20T17:34:23;23.85;;;13.13;;
30380;SDS011;17169;50.966;11.038;2022-11-20T17:37:27;24.17;;;11.88;;
30380;SDS011;17169;50.966;11.038;2022-11-20T17:40:29;21.10;;;11.35;;
30380;SDS011;17169;50.966;11.038;2022-11-20T17:43:32;21.60;;;11.52;;
30380;SDS011;17169;50.966;11.038;2022-11-20T17:46:36;24.73;;;12.88;;
30380;SDS011;17169;50.966;11.038;2022-11-20T17:49:39;26.60;;;12.65;;
30380;SDS011;17169;50.966;11.038;2022-11-20T17:52:42;24.55;;;12.63;;
30380;SDS011;17169;50.966;11.038;2022-11-20T17:55:51;26.50;;;13.40;;
30380;SDS011;17169;50.966;11.038;2022-11-20T17:59:13;29.90;;;14.18;;
30380;SDS011;17169;50.966;11.038;2022-11-20T18:02:15;21.83;;;12.25;;
30380;SDS011;17169;50.966;11.038;2022-11-20T18:05:18;23.70;;;11.85;;
30380;SDS011;17169;50.966;11.038;2022-11-20T18:08:21;24.35;;;12.65;;